map of MCG home
MCG - Airport
Location
City:  McGrath, Alaska, United States
Name:Mc Grath Airport
ICAO:PAMC
IATA:MCG
FAA LID:MCG

Details
Type:Airport (Airfield)
Use:Public/Civil
Latitude:6257'10"N (62.952784)
Longitude:15536'25"W (-155.607047)
Datum:WGS 1984
Elevation:342 ft (104 m)
Variation:14.38E (WMM2015 magnetic declination)
-0.36 annual change
Runways:2
Longest:5936 × 100 ft (1809 × 30.5 m), paved

Time
Time Zone:UTC-9 (DST-8)
Local Time:

Weather
METAR:PAMC 231953Z AUTO 00000KT 10SM OVC100 M09/M12 A2976 RMK AO2 SLP085 T10891122 TSNO $
TAF:PAMC 231735Z 2318/2418 VRB04KT P6SM SCT050 BKN100 BKN200
FM232100 VRB04KT P6SM VCSH SCT025 BKN035 OVC050
FM240000 VRB04KT P6SM VCSH SCT015 BKN025 OVC035

Related Locations
Nearby:
Farthest:NZSP: 10554 mi / 16985 km
Amundsen-Scott South Pole Station [Jack F. Paulus Skiway], AQ

Find:

   beyond  
but within

Other Information
Maps:
NOTAMs:
Links:
Sources:

  
flag of United States
flag of Alaska
  

Sectional Chart

Flight Planning
at skyvector.com

Satellite Image

Google Maps Satellite view

 

Copyright © 2004-2017 Karl L. Swartz. All rights reserved.
The Great Circle Mapper name and logo are trademarks of the Great Circle Mapper.
All other trademarks mentioned herein belong to their respective owners.
Please see credits for attibutions and further copyright information.

  Follow gcmap on Facebook Follow gcmap on Twitter Follow gcmap on Google+ GCmap on LinkedIn

hCard Microformat

Geo Microformat